Time;durP1;ratioP1;P1;durP2;ratioP2;P2;SDS_P1;SDS_P2;PMS_P1;PMS_P2;Temp;Humidity;BMP_temperature;BMP_pressure;BME280_temperature;BME280_humidity;BME280_pressure;Samples;Min_cycle;Max_cycle;Signal;HPM_P1;HPM_P2
2023/03/19 00:01:40;;;;;;;;;;;20.50;41.00;;;;;;1541149;77;1157;-59
2023/03/19 00:03:42;;;;;;;;;;;20.50;41.00;;;;;;1545565;77;680;-60
2023/03/19 00:05:45;;;;;;;;;;;20.50;40.90;;;;;;1535073;77;1544;-59
2023/03/19 00:07:47;;;;;;;;;;;20.50;41.00;;;;;;1539742;77;1494;-60
2023/03/19 00:09:49;;;;;;;;;;;20.50;40.90;;;;;;1547829;77;601;-60
2023/03/19 00:11:51;;;;;;;;;;;20.50;41.00;;;;;;1535975;77;1135;-60
2023/03/19 00:13:53;;;;;;;;;;;20.50;41.00;;;;;;1547250;77;1911;-59
2023/03/19 00:15:55;;;;;;;;;;;20.50;41.00;;;;;;1547786;77;538;-60
2023/03/19 00:17:57;;;;;;;;;;;20.50;41.00;;;;;;1544167;77;757;-60
2023/03/19 00:19:59;;;;;;;;;;;20.50;41.00;;;;;;1535387;77;1587;-59
2023/03/19 00:22:00;;;;;;;;;;;20.50;41.00;;;;;;1533683;77;1182;-60
2023/03/19 00:24:02;;;;;;;;;;;20.50;41.00;;;;;;1545207;77;704;-60
2023/03/19 00:26:05;;;;;;;;;;;20.50;41.00;;;;;;1527484;77;700;-61
2023/03/19 00:28:07;;;;;;;;;;;20.40;40.90;;;;;;1531644;77;731;-58
2023/03/19 00:30:10;;;;;;;;;;;20.50;41.10;;;;;;1532507;77;727;-60
2023/03/19 00:32:12;;;;;;;;;;;20.50;41.00;;;;;;1535921;77;1285;-61
2023/03/19 00:34:17;;;;;;;;;;;20.40;41.00;;;;;;1547582;77;1935;-64
2023/03/19 00:36:17;;;;;;;;;;;20.50;41.00;;;;;;1540669;77;1027;-60
2023/03/19 00:38:19;;;;;;;;;;;20.50;41.00;;;;;;1534884;77;810;-60
2023/03/19 00:40:21;;;;;;;;;;;20.40;41.00;;;;;;1538121;77;765;-60
2023/03/19 00:42:23;;;;;;;;;;;20.40;41.00;;;;;;1544019;77;1185;-59
2023/03/19 00:44:25;;;;;;;;;;;20.40;41.00;;;;;;1539731;77;739;-60
2023/03/19 00:46:26;;;;;;;;;;;20.40;41.10;;;;;;1509225;77;1609;-60
2023/03/19 00:48:28;;;;;;;;;;;20.40;41.10;;;;;;1539915;77;724;-61
2023/03/19 00:50:30;;;;;;;;;;;20.40;41.10;;;;;;1541114;77;799;-60
2023/03/19 00:52:32;;;;;;;;;;;20.40;41.20;;;;;;1539387;77;1137;-59
2023/03/19 00:54:34;;;;;;;;;;;20.40;41.20;;;;;;1532497;77;1931;-59
2023/03/19 00:56:36;;;;;;;;;;;20.40;41.10;;;;;;1542875;77;775;-59
2023/03/19 00:58:39;;;;;;;;;;;20.40;41.10;;;;;;1546584;77;691;-61
2023/03/19 01:00:41;;;;;;;;;;;20.30;41.10;;;;;;1539925;77;1589;-59
2023/03/19 01:02:43;;;;;;;;;;;20.40;41.10;;;;;;1540107;77;1141;-63
2023/03/19 01:04:47;;;;;;;;;;;20.30;41.20;;;;;;1544671;77;676;-62
2023/03/19 01:06:48;;;;;;;;;;;20.40;41.20;;;;;;1544406;77;705;-60
2023/03/19 01:08:50;;;;;;;;;;;20.40;41.10;;;;;;1539408;77;756;-60
2023/03/19 01:10:52;;;;;;;;;;;20.40;41.20;;;;;;1541548;77;746;-60
2023/03/19 01:12:54;;;;;;;;;;;20.40;41.20;;;;;;1545635;77;1088;-60
2023/03/19 01:14:56;;;;;;;;;;;20.40;41.20;;;;;;1544486;77;1901;-64
2023/03/19 01:16:58;;;;;;;;;;;20.40;41.20;;;;;;1542893;77;635;-59
2023/03/19 01:19:00;;;;;;;;;;;20.40;41.20;;;;;;1537405;77;753;-60
2023/03/19 01:21:02;;;;;;;;;;;20.40;41.10;;;;;;1544066;77;712;-59
2023/03/19 01:23:05;;;;;;;;;;;20.40;41.20;;;;;;1538819;77;1147;-60
2023/03/19 01:25:07;;;;;;;;;;;20.40;41.10;;;;;;1538655;77;744;-60
2023/03/19 01:27:09;;;;;;;;;;;20.40;41.20;;;;;;1533594;77;775;-60
2023/03/19 01:29:11;;;;;;;;;;;20.40;41.10;;;;;;1533891;77;1345;-59
2023/03/19 01:31:13;;;;;;;;;;;20.40;41.20;;;;;;1537749;77;724;-62
2023/03/19 01:33:15;;;;;;;;;;;20.40;41.20;;;;;;1538591;77;1123;-60
2023/03/19 01:35:17;;;;;;;;;;;20.40;41.10;;;;;;1543890;77;1908;-60
2023/03/19 01:37:19;;;;;;;;;;;20.40;41.10;;;;;;1547078;77;674;-62
2023/03/19 01:39:21;;;;;;;;;;;20.40;41.10;;;;;;1528677;77;649;-61
2023/03/19 01:41:23;;;;;;;;;;;20.40;41.10;;;;;;1534263;77;684;-59
2023/03/19 01:43:26;;;;;;;;;;;20.40;41.20;;;;;;1545178;77;1532;-60
2023/03/19 01:45:34;;;;;;;;;;;20.40;41.10;;;;;;1547775;77;794;-62
2023/03/19 01:47:37;;;;;;;;;;;20.40;41.20;;;;;;1538949;77;729;-60
2023/03/19 01:49:39;;;;;;;;;;;20.40;41.10;;;;;;1544131;77;677;-60
2023/03/19 01:51:41;;;;;;;;;;;20.40;41.10;;;;;;1541897;77;1153;-59
2023/03/19 01:53:45;;;;;;;;;;;20.40;41.10;;;;;;1533854;77;709;-60
2023/03/19 01:55:47;;;;;;;;;;;20.40;41.10;;;;;;1531060;77;1907;-61
2023/03/19 01:57:48;;;;;;;;;;;20.40;41.00;;;;;;1541511;77;1510;-61
2023/03/19 01:59:54;;;;;;;;;;;20.40;41.10;;;;;;1545987;77;826;-60
2023/03/19 02:01:57;;;;;;;;;;;20.40;41.10;;;;;;1544569;77;1177;-61
2023/03/19 02:03:59;;;;;;;;;;;20.40;41.20;;;;;;1545996;77;1901;-60
2023/03/19 02:06:01;;;;;;;;;;;20.40;41.10;;;;;;1537122;77;757;-60
2023/03/19 02:08:05;;;;;;;;;;;20.40;41.10;;;;;;1533008;77;644;-60
2023/03/19 02:10:08;;;;;;;;;;;20.40;41.10;;;;;;1543528;77;687;-61
2023/03/19 02:12:10;;;;;;;;;;;20.40;41.10;;;;;;1536187;77;1552;-60
2023/03/19 02:14:12;;;;;;;;;;;20.40;41.10;;;;;;1541796;77;673;-60
2023/03/19 02:16:14;;;;;;;;;;;20.30;41.20;;;;;;1543290;77;1939;-60
2023/03/19 02:18:17;;;;;;;;;;;20.40;41.10;;;;;;1542588;77;878;-60
2023/03/19 02:20:23;;;;;;;;;;;20.40;41.10;;;;;;1545047;77;753;-61
2023/03/19 02:22:25;;;;;;;;;;;20.40;41.20;;;;;;1538432;77;1885;-61
2023/03/19 02:24:35;;;;;;;;;;;20.40;41.20;;;;;;1543470;77;943;-60
2023/03/19 02:26:37;;;;;;;;;;;20.40;41.30;;;;;;1537854;77;1648;-59
2023/03/19 02:28:39;;;;;;;;;;;20.40;41.20;;;;;;1540157;77;602;-60
2023/03/19 02:30:42;;;;;;;;;;;20.40;41.20;;;;;;1545039;77;792;-61
2023/03/19 02:32:44;;;;;;;;;;;20.40;41.20;;;;;;1537024;77;1134;-60
2023/03/19 02:34:45;;;;;;;;;;;20.30;41.30;;;;;;1532150;77;1928;-60
2023/03/19 02:36:50;;;;;;;;;;;20.30;41.20;;;;;;1538108;77;704;-60
2023/03/19 02:38:52;;;;;;;;;;;20.40;41.20;;;;;;1526763;77;1858;-59
2023/03/19 02:40:58;;;;;;;;;;;20.30;41.30;;;;;;1539683;77;809;-60
2023/03/19 02:43:00;;;;;;;;;;;20.40;41.20;;;;;;1528401;77;1519;-61
2023/03/19 02:45:02;;;;;;;;;;;20.30;41.20;;;;;;1543944;77;727;-60
2023/03/19 02:47:04;;;;;;;;;;;20.30;41.20;;;;;;1548423;77;784;-60
2023/03/19 02:49:06;;;;;;;;;;;20.40;41.20;;;;;;1546857;77;562;-60
2023/03/19 02:51:08;;;;;;;;;;;20.30;41.20;;;;;;1541409;77;599;-60
2023/03/19 02:53:10;;;;;;;;;;;20.30;41.30;;;;;;1538602;77;1543;-60
2023/03/19 02:55:12;;;;;;;;;;;20.30;41.20;;;;;;1542829;77;1933;-59
2023/03/19 02:57:14;;;;;;;;;;;20.30;41.30;;;;;;1537175;77;808;-60
2023/03/19 02:59:15;;;;;;;;;;;20.30;41.30;;;;;;1542849;77;621;-60
2023/03/19 03:01:17;;;;;;;;;;;20.30;41.20;;;;;;1540250;77;773;-62
2023/03/19 03:03:19;;;;;;;;;;;20.40;41.20;;;;;;1539900;77;1150;-60
2023/03/19 03:05:21;;;;;;;;;;;20.30;41.30;;;;;;1535645;77;773;-59
2023/03/19 03:07:23;;;;;;;;;;;20.20;41.10;;;;;;1534851;77;1575;-59
2023/03/19 03:09:26;;;;;;;;;;;20.30;41.30;;;;;;1544957;77;691;-59
2023/03/19 03:11:27;;;;;;;;;;;20.30;41.30;;;;;;1544117;77;740;-59
2023/03/19 03:13:29;;;;;;;;;;;20.30;41.30;;;;;;1544795;77;1099;-60
2023/03/19 03:15:31;;;;;;;;;;;20.30;41.30;;;;;;1534897;77;1935;-59
2023/03/19 03:17:35;;;;;;;;;;;20.30;41.30;;;;;;1541297;75;692;-60
2023/03/19 03:19:37;;;;;;;;;;;20.30;41.30;;;;;;1542433;77;790;-59
2023/03/19 03:21:39;;;;;;;;;;;20.30;41.30;;;;;;1538562;77;1542;-59
2023/03/19 03:23:40;;;;;;;;;;;20.30;41.30;;;;;;1541654;77;632;-60
2023/03/19 03:25:42;;;;;;;;;;;20.30;41.30;;;;;;1530931;77;595;-59
2023/03/19 03:27:44;;;;;;;;;;;20.30;41.30;;;;;;1527374;77;682;-60
2023/03/19 03:29:47;;;;;;;;;;;20.30;41.30;;;;;;1536963;77;752;-60
2023/03/19 03:31:49;;;;;;;;;;;20.30;41.30;;;;;;1540107;77;1153;-60
2023/03/19 03:33:51;;;;;;;;;;;20.30;41.30;;;;;;1546848;77;742;-60
2023/03/19 03:35:53;;;;;;;;;;;20.30;41.40;;;;;;1538570;77;1925;-60
2023/03/19 03:37:56;;;;;;;;;;;20.30;41.30;;;;;;1535728;77;761;-60
2023/03/19 03:39:58;;;;;;;;;;;20.30;41.40;;;;;;1532234;77;815;-60
2023/03/19 03:42:00;;;;;;;;;;;20.30;41.40;;;;;;1533382;77;1194;-59
2023/03/19 03:44:02;;;;;;;;;;;20.30;41.40;;;;;;1535252;77;708;-59
2023/03/19 03:46:04;;;;;;;;;;;20.30;41.30;;;;;;1543805;77;886;-60
2023/03/19 03:48:06;;;;;;;;;;;20.30;41.40;;;;;;1531266;77;731;-60
2023/03/19 03:50:09;;;;;;;;;;;20.20;41.30;;;;;;1538665;77;1570;-60
2023/03/19 03:52:11;;;;;;;;;;;20.30;41.40;;;;;;1536522;77;1154;-61
2023/03/19 03:54:13;;;;;;;;;;;20.30;41.40;;;;;;1547791;77;790;-61
2023/03/19 03:56:15;;;;;;;;;;;20.30;41.40;;;;;;1540431;77;1913;-60
2023/03/19 03:58:17;;;;;;;;;;;20.30;41.40;;;;;;1537697;77;949;-60
2023/03/19 04:00:19;;;;;;;;;;;20.20;41.30;;;;;;1540572;77;740;-59
2023/03/19 04:02:21;;;;;;;;;;;20.30;41.40;;;;;;1537735;77;1154;-59
2023/03/19 04:04:23;;;;;;;;;;;20.30;41.40;;;;;;1541282;77;1577;-59
2023/03/19 04:06:25;;;;;;;;;;;20.30;41.40;;;;;;1544929;77;723;-60
2023/03/19 04:08:27;;;;;;;;;;;20.30;41.50;;;;;;1540901;77;753;-59
2023/03/19 04:10:30;;;;;;;;;;;20.20;41.30;;;;;;1543963;77;679;-61
2023/03/19 04:12:32;;;;;;;;;;;20.30;41.50;;;;;;1538810;77;1240;-60
2023/03/19 04:14:34;;;;;;;;;;;20.30;41.50;;;;;;1544196;77;832;-63
2023/03/19 04:16:36;;;;;;;;;;;20.20;41.40;;;;;;1543601;77;1914;-60
2023/03/19 04:18:38;;;;;;;;;;;20.30;41.50;;;;;;1542833;77;1469;-60
2023/03/19 04:20:40;;;;;;;;;;;20.30;41.50;;;;;;1535878;77;704;-60
2023/03/19 04:22:42;;;;;;;;;;;20.20;41.30;;;;;;1545424;77;1137;-61
2023/03/19 04:24:44;;;;;;;;;;;20.20;41.30;;;;;;1547443;77;679;-59
2023/03/19 04:26:47;;;;;;;;;;;20.20;41.30;;;;;;1539768;77;666;-59
2023/03/19 04:28:49;;;;;;;;;;;20.20;41.30;;;;;;1546728;77;738;-60
2023/03/19 04:30:51;;;;;;;;;;;20.30;41.50;;;;;;1548234;77;963;-60
2023/03/19 04:32:53;;;;;;;;;;;20.30;41.50;;;;;;1530823;77;1336;-61
2023/03/19 04:34:57;;;;;;;;;;;20.30;41.50;;;;;;1526999;77;877;-64
2023/03/19 04:36:59;;;;;;;;;;;20.30;41.60;;;;;;1529019;77;1887;-59
2023/03/19 04:39:01;;;;;;;;;;;20.30;41.50;;;;;;1534288;77;674;-60
2023/03/19 04:41:03;;;;;;;;;;;20.20;41.40;;;;;;1538138;77;577;-59
2023/03/19 04:43:05;;;;;;;;;;;20.30;41.50;;;;;;1544386;75;1245;-59
2023/03/19 04:45:07;;;;;;;;;;;20.30;41.50;;;;;;1544876;77;688;-60
2023/03/19 04:47:09;;;;;;;;;;;20.20;41.40;;;;;;1543339;77;1418;-60
2023/03/19 04:49:11;;;;;;;;;;;20.30;41.60;;;;;;1526443;77;575;-60
2023/03/19 04:51:13;;;;;;;;;;;20.30;41.60;;;;;;1547968;77;740;-59
2023/03/19 04:53:15;;;;;;;;;;;20.20;41.50;;;;;;1546793;77;1140;-58
2023/03/19 04:55:17;;;;;;;;;;;20.20;41.50;;;;;;1539765;77;1939;-59
2023/03/19 04:57:20;;;;;;;;;;;20.30;41.60;;;;;;1543720;77;720;-59
2023/03/19 04:59:22;;;;;;;;;;;20.30;41.70;;;;;;1542406;77;930;-62
2023/03/19 05:01:23;;;;;;;;;;;20.20;41.50;;;;;;1532326;77;1578;-59
2023/03/19 05:03:26;;;;;;;;;;;20.20;41.50;;;;;;1530800;77;1137;-60
2023/03/19 05:05:27;;;;;;;;;;;20.20;41.50;;;;;;1530352;77;774;-61
2023/03/19 05:07:29;;;;;;;;;;;20.20;41.50;;;;;;1533178;77;733;-60
2023/03/19 05:09:31;;;;;;;;;;;20.20;41.50;;;;;;1528510;77;767;-60
2023/03/19 05:11:33;;;;;;;;;;;20.20;41.50;;;;;;1529342;77;677;-59
2023/03/19 05:13:35;;;;;;;;;;;20.20;41.50;;;;;;1537925;77;1603;-59
2023/03/19 05:15:37;;;;;;;;;;;20.20;41.50;;;;;;1537747;77;1929;-59
2023/03/19 05:17:40;;;;;;;;;;;20.20;41.60;;;;;;1547621;77;811;-59
2023/03/19 05:19:42;;;;;;;;;;;20.20;41.50;;;;;;1542357;77;696;-60
2023/03/19 05:21:44;;;;;;;;;;;20.20;41.60;;;;;;1536796;77;1174;-62
2023/03/19 05:23:51;;;;;;;;;;;20.20;41.50;;;;;;1533303;77;767;-59
2023/03/19 05:25:49;;;;;;;;;;;20.20;41.50;;;;;;1531682;77;1498;-62
2023/03/19 05:27:51;;;;;;;;;;;20.20;41.60;;;;;;1536331;77;1477;-60
2023/03/19 05:29:53;;;;;;;;;;;20.20;41.50;;;;;;1548119;77;766;-60
2023/03/19 05:31:55;;;;;;;;;;;20.30;41.60;;;;;;1533386;77;1163;-61
2023/03/19 05:33:57;;;;;;;;;;;20.20;41.50;;;;;;1545300;77;802;-60
2023/03/19 05:35:59;;;;;;;;;;;20.20;41.50;;;;;;1546225;77;1931;-59
2023/03/19 05:38:01;;;;;;;;;;;20.20;41.50;;;;;;1536797;77;966;-60
2023/03/19 05:40:03;;;;;;;;;;;20.20;41.50;;;;;;1518554;78;684;-60
2023/03/19 05:42:05;;;;;;;;;;;20.20;41.50;;;;;;1526970;77;1381;-60
2023/03/19 05:44:07;;;;;;;;;;;20.20;41.50;;;;;;1541475;77;694;-59
2023/03/19 05:46:10;;;;;;;;;;;20.20;41.50;;;;;;1544477;77;743;-61
2023/03/19 05:48:12;;;;;;;;;;;20.20;41.60;;;;;;1534105;77;780;-60
2023/03/19 05:50:14;;;;;;;;;;;20.20;41.50;;;;;;1547982;77;726;-62
2023/03/19 05:52:16;;;;;;;;;;;20.20;41.50;;;;;;1535950;77;1206;-61
2023/03/19 05:54:18;;;;;;;;;;;20.20;41.50;;;;;;1538207;77;756;-60
2023/03/19 05:56:20;;;;;;;;;;;20.20;41.50;;;;;;1541471;77;1933;-60
2023/03/19 05:58:22;;;;;;;;;;;20.20;41.50;;;;;;1540027;77;708;-61
2023/03/19 06:00:24;;;;;;;;;;;20.20;41.50;;;;;;1545492;77;661;-61
2023/03/19 06:02:26;;;;;;;;;;;20.20;41.50;;;;;;1546812;77;1145;-61
2023/03/19 06:04:27;;;;;;;;;;;20.20;41.50;;;;;;1532440;77;758;-60
2023/03/19 06:06:30;;;;;;;;;;;20.20;41.50;;;;;;1545184;77;927;-60
2023/03/19 06:08:32;;;;;;;;;;;20.20;41.60;;;;;;1541612;77;742;-61
2023/03/19 06:10:35;;;;;;;;;;;20.20;41.50;;;;;;1537450;77;1496;-60
2023/03/19 06:12:36;;;;;;;;;;;20.20;41.60;;;;;;1541680;77;1153;-60
2023/03/19 06:14:38;;;;;;;;;;;20.20;41.50;;;;;;1544703;77;691;-60
2023/03/19 06:16:45;;;;;;;;;;;20.20;41.50;;;;;;1529530;77;1939;-60
2023/03/19 06:18:45;;;;;;;;;;;20.20;41.50;;;;;;1534252;77;1591;-60
2023/03/19 06:20:47;;;;;;;;;;;20.10;41.50;;;;;;1532930;77;685;-61
2023/03/19 06:22:49;;;;;;;;;;;20.20;41.50;;;;;;1526755;77;1119;-61
2023/03/19 06:24:51;;;;;;;;;;;20.20;41.50;;;;;;1536679;77;1597;-61
2023/03/19 06:26:53;;;;;;;;;;;20.20;41.50;;;;;;1539597;77;739;-59
2023/03/19 06:28:55;;;;;;;;;;;20.20;41.50;;;;;;1546623;77;697;-60
2023/03/19 06:30:57;;;;;;;;;;;20.10;41.50;;;;;;1544183;77;743;-61
2023/03/19 06:32:58;;;;;;;;;;;20.20;41.50;;;;;;1537763;77;1146;-61
2023/03/19 06:35:00;;;;;;;;;;;20.20;41.50;;;;;;1534687;77;698;-61
2023/03/19 06:37:02;;;;;;;;;;;20.20;41.60;;;;;;1533071;77;1937;-61
2023/03/19 06:39:04;;;;;;;;;;;20.20;41.50;;;;;;1545324;77;1459;-61
2023/03/19 06:41:06;;;;;;;;;;;20.20;41.50;;;;;;1544259;77;1026;-60
2023/03/19 06:43:08;;;;;;;;;;;20.20;41.50;;;;;;1543584;77;1155;-59
2023/03/19 06:45:10;;;;;;;;;;;20.20;41.60;;;;;;1543140;77;721;-61
2023/03/19 06:47:13;;;;;;;;;;;20.20;41.50;;;;;;1546905;77;805;-59
2023/03/19 06:49:15;;;;;;;;;;;20.20;41.50;;;;;;1539765;77;757;-60
2023/03/19 06:51:17;;;;;;;;;;;20.20;41.60;;;;;;1545172;77;734;-61
2023/03/19 06:53:18;;;;;;;;;;;20.10;41.50;;;;;;1540317;77;1614;-61
2023/03/19 06:55:20;;;;;;;;;;;20.20;41.50;;;;;;1544610;77;704;-61
2023/03/19 06:57:22;;;;;;;;;;;20.20;41.50;;;;;;1541491;77;1947;-60
2023/03/19 06:59:24;;;;;;;;;;;20.10;41.50;;;;;;1544143;77;681;-60
2023/03/19 07:01:26;;;;;;;;;;;20.20;41.50;;;;;;1535244;77;788;-60
2023/03/19 07:03:28;;;;;;;;;;;20.20;41.60;;;;;;1547954;77;1106;-60
2023/03/19 07:05:30;;;;;;;;;;;20.20;41.50;;;;;;1536105;77;731;-60
2023/03/19 07:07:32;;;;;;;;;;;20.20;41.60;;;;;;1542079;77;1340;-62
2023/03/19 07:09:34;;;;;;;;;;;20.20;41.50;;;;;;1541584;77;746;-59
2023/03/19 07:11:36;;;;;;;;;;;20.20;41.50;;;;;;1534736;77;858;-61
2023/03/19 07:13:38;;;;;;;;;;;20.20;41.60;;;;;;1542264;77;687;-61
2023/03/19 07:15:40;;;;;;;;;;;20.20;41.50;;;;;;1539265;77;774;-61
2023/03/19 07:17:43;;;;;;;;;;;20.30;41.70;;;;;;1539136;77;1919;-61
2023/03/19 07:19:45;;;;;;;;;;;20.20;41.60;;;;;;1533089;77;762;-60
2023/03/19 07:21:47;;;;;;;;;;;20.20;41.50;;;;;;1534217;77;1534;-60
2023/03/19 07:23:49;;;;;;;;;;;20.20;41.60;;;;;;1540018;77;726;-60
2023/03/19 07:25:51;;;;;;;;;;;20.20;41.50;;;;;;1538239;77;637;-61
2023/03/19 07:27:53;;;;;;;;;;;20.20;41.50;;;;;;1539069;77;759;-59
2023/03/19 07:29:55;;;;;;;;;;;20.20;41.60;;;;;;1537730;77;765;-60
2023/03/19 07:31:57;;;;;;;;;;;20.20;41.60;;;;;;1531445;77;1126;-60
2023/03/19 07:33:59;;;;;;;;;;;20.20;41.60;;;;;;1535349;77;674;-61
2023/03/19 07:36:01;;;;;;;;;;;20.20;41.60;;;;;;1528851;77;1474;-61
2023/03/19 07:38:03;;;;;;;;;;;20.20;41.60;;;;;;1547051;77;1943;-60
2023/03/19 07:40:06;;;;;;;;;;;20.20;41.60;;;;;;1544611;77;701;-60
2023/03/19 07:42:08;;;;;;;;;;;20.20;41.50;;;;;;1533480;77;1151;-60
2023/03/19 07:44:10;;;;;;;;;;;20.30;41.70;;;;;;1528467;77;757;-61
2023/03/19 07:46:12;;;;;;;;;;;20.20;41.60;;;;;;1547457;77;779;-60
2023/03/19 07:48:15;;;;;;;;;;;20.30;41.80;;;;;;1547151;77;1549;-60
2023/03/19 07:50:16;;;;;;;;;;;20.20;41.60;;;;;;1541927;77;795;-60
2023/03/19 07:52:18;;;;;;;;;;;20.20;41.60;;;;;;1532979;77;1201;-61
2023/03/19 07:54:22;;;;;;;;;;;20.20;41.60;;;;;;1535173;77;759;-61
2023/03/19 07:56:24;;;;;;;;;;;20.20;41.60;;;;;;1539095;77;1920;-61
2023/03/19 07:58:26;;;;;;;;;;;20.20;41.60;;;;;;1546821;77;814;-60
2023/03/19 08:00:28;;;;;;;;;;;20.10;41.60;;;;;;1539831;77;807;-60
2023/03/19 08:02:30;;;;;;;;;;;20.20;41.60;;;;;;1537529;77;1634;-60
2023/03/19 08:04:31;;;;;;;;;;;20.20;41.60;;;;;;1538666;77;773;-61
2023/03/19 08:06:33;;;;;;;;;;;20.20;41.60;;;;;;1540153;77;777;-61
2023/03/19 08:08:35;;;;;;;;;;;20.20;41.60;;;;;;1545654;77;730;-61
2023/03/19 08:10:37;;;;;;;;;;;20.20;41.60;;;;;;1544500;77;747;-59
2023/03/19 08:12:40;;;;;;;;;;;20.20;41.60;;;;;;1540970;77;1458;-60
2023/03/19 08:14:41;;;;;;;;;;;20.20;41.60;;;;;;1547577;77;798;-59
2023/03/19 08:16:43;;;;;;;;;;;20.20;41.60;;;;;;1547271;77;1924;-60
2023/03/19 08:18:45;;;;;;;;;;;20.20;41.60;;;;;;1545435;77;804;-59
2023/03/19 08:20:47;;;;;;;;;;;20.20;41.60;;;;;;1530167;77;735;-60
2023/03/19 08:22:49;;;;;;;;;;;20.20;41.70;;;;;;1546022;77;1130;-61
2023/03/19 08:24:51;;;;;;;;;;;20.20;41.60;;;;;;1541176;77;747;-61
2023/03/19 08:26:53;;;;;;;;;;;20.10;41.60;;;;;;1537301;77;789;-61
2023/03/19 08:28:55;;;;;;;;;;;20.20;41.70;;;;;;1540801;77;733;-61
2023/03/19 08:30:57;;;;;;;;;;;20.20;41.70;;;;;;1545797;77;1594;-61
2023/03/19 08:32:59;;;;;;;;;;;20.10;41.70;;;;;;1543050;77;1106;-60
2023/03/19 08:35:01;;;;;;;;;;;20.10;41.60;;;;;;1534878;77;791;-60
2023/03/19 08:37:03;;;;;;;;;;;20.20;41.60;;;;;;1533343;77;1919;-60
2023/03/19 08:39:05;;;;;;;;;;;20.20;41.70;;;;;;1536188;77;760;-60
2023/03/19 08:41:07;;;;;;;;;;;20.20;41.70;;;;;;1538376;77;723;-62
2023/03/19 08:43:09;;;;;;;;;;;20.30;41.80;;;;;;1530169;77;1119;-61
2023/03/19 08:45:12;;;;;;;;;;;20.20;41.70;;;;;;1541338;77;1482;-60
2023/03/19 08:47:13;;;;;;;;;;;20.20;41.70;;;;;;1543080;77;725;-60
2023/03/19 08:49:15;;;;;;;;;;;20.30;41.80;;;;;;1543213;77;691;-60
2023/03/19 08:51:17;;;;;;;;;;;20.20;41.70;;;;;;1541978;77;679;-60
2023/03/19 08:53:19;;;;;;;;;;;20.20;41.70;;;;;;1542993;77;1166;-60
2023/03/19 08:55:21;;;;;;;;;;;20.20;41.70;;;;;;1535760;77;738;-60
2023/03/19 08:57:23;;;;;;;;;;;20.20;41.80;;;;;;1543124;77;1943;-61
2023/03/19 08:59:25;;;;;;;;;;;20.20;41.70;;;;;;1543439;77;1307;-60
2023/03/19 09:01:27;;;;;;;;;;;20.20;41.70;;;;;;1537273;77;749;-61
2023/03/19 09:03:29;;;;;;;;;;;20.20;41.70;;;;;;1541174;77;1210;-61
2023/03/19 09:05:31;;;;;;;;;;;20.20;41.80;;;;;;1546706;77;700;-60
2023/03/19 09:07:33;;;;;;;;;;;20.20;41.80;;;;;;1544207;77;755;-60
2023/03/19 09:09:35;;;;;;;;;;;20.20;41.80;;;;;;1535018;77;733;-59
2023/03/19 09:11:37;;;;;;;;;;;20.30;41.90;;;;;;1538179;77;1167;-61
2023/03/19 09:13:39;;;;;;;;;;;20.20;41.80;;;;;;1539216;77;1582;-60
2023/03/19 09:15:41;;;;;;;;;;;20.30;41.80;;;;;;1536661;77;753;-61
2023/03/19 09:17:43;;;;;;;;;;;20.30;41.80;;;;;;1547852;77;1943;-60
2023/03/19 09:19:45;;;;;;;;;;;20.30;41.90;;;;;;1545917;77;840;-60
2023/03/19 09:21:47;;;;;;;;;;;20.30;41.90;;;;;;1531850;77;1087;-60
2023/03/19 09:23:49;;;;;;;;;;;20.30;41.90;;;;;;1535872;77;676;-60
2023/03/19 09:25:51;;;;;;;;;;;20.30;41.90;;;;;;1539351;77;817;-60
2023/03/19 09:27:53;;;;;;;;;;;20.30;41.80;;;;;;1530987;77;1573;-60
2023/03/19 09:29:55;;;;;;;;;;;20.30;41.90;;;;;;1536386;77;687;-61
2023/03/19 09:31:57;;;;;;;;;;;20.30;41.90;;;;;;1542389;77;1158;-61
2023/03/19 09:33:59;;;;;;;;;;;20.30;41.80;;;;;;1545629;77;679;-60
2023/03/19 09:36:01;;;;;;;;;;;20.30;41.90;;;;;;1539032;77;613;-60
2023/03/19 09:38:03;;;;;;;;;;;20.40;41.80;;;;;;1546968;77;1913;-60
2023/03/19 09:40:05;;;;;;;;;;;20.30;41.80;;;;;;1537882;77;1094;-60
2023/03/19 09:42:25;;;;;;;;;;;20.40;41.80;;;;;;1539243;77;1323;-60
2023/03/19 09:44:31;;;;;;;;;;;20.40;41.80;;;;;;1537031;77;747;-60
2023/03/19 09:46:37;;;;;;;;;;;20.30;41.80;;;;;;1519587;78;680;-60
2023/03/19 09:48:47;;;;;;;;;;;20.30;41.70;;;;;;1515233;77;714;-60
2023/03/19 09:50:49;;;;;;;;;;;20.30;41.80;;;;;;1514762;77;781;-60
2023/03/19 09:53:01;;;;;;;;;;;20.40;41.80;;;;;;1537806;77;1139;-60
2023/03/19 09:55:05;;;;;;;;;;;20.40;41.80;;;;;;1528860;77;1534;-61
2023/03/19 09:57:08;;;;;;;;;;;20.40;41.70;;;;;;1531859;77;1878;-59
2023/03/19 09:59:10;;;;;;;;;;;20.30;41.80;;;;;;1546199;77;708;-60
2023/03/19 10:01:19;;;;;;;;;;;20.40;41.80;;;;;;1547877;77;643;-61
2023/03/19 10:03:29;;;;;;;;;;;20.40;41.80;;;;;;1541087;77;2042;-61
2023/03/19 10:05:38;;;;;;;;;;;20.40;41.70;;;;;;1536060;77;2120;-61
2023/03/19 10:07:58;;;;;;;;;;;20.40;41.70;;;;;;1536720;77;744;-60
2023/03/19 10:10:04;;;;;;;;;;;20.40;41.70;;;;;;1543833;77;1942;-60
2023/03/19 10:12:16;;;;;;;;;;;20.40;41.80;;;;;;1539772;77;1118;-61
2023/03/19 10:14:18;;;;;;;;;;;20.40;41.70;;;;;;1537334;77;859;-60
2023/03/19 10:16:25;;;;;;;;;;;20.50;41.80;;;;;;1532211;77;794;-61
2023/03/19 10:18:31;;;;;;;;;;;20.40;41.70;;;;;;1540862;77;1912;-62
2023/03/19 10:20:40;;;;;;;;;;;20.50;41.80;;;;;;1547230;77;1430;-61
2023/03/19 10:22:47;;;;;;;;;;;20.50;41.80;;;;;;1533360;77;1920;-60
2023/03/19 10:24:49;;;;;;;;;;;20.50;41.70;;;;;;1545129;77;1448;-60
2023/03/19 10:26:52;;;;;;;;;;;20.50;41.70;;;;;;1548417;77;789;-60
2023/03/19 10:29:12;;;;;;;;;;;20.50;41.70;;;;;;1512698;77;1217;-60
2023/03/19 10:31:27;;;;;;;;;;;20.50;41.70;;;;;;1541046;77;804;-60
2023/03/19 10:33:31;;;;;;;;;;;20.50;41.70;;;;;;1547784;77;1146;-59
2023/03/19 10:35:40;;;;;;;;;;;20.50;41.80;;;;;;1547836;77;2318;-60
2023/03/19 10:37:42;;;;;;;;;;;20.50;41.70;;;;;;1542122;77;1923;-61
2023/03/19 10:39:45;;;;;;;;;;;20.50;41.70;;;;;;1538459;77;724;-60
2023/03/19 10:41:54;;;;;;;;;;;20.50;41.70;;;;;;1542563;77;1108;-61
2023/03/19 10:43:57;;;;;;;;;;;20.50;41.60;;;;;;1535306;77;1959;-60
2023/03/19 10:45:59;;;;;;;;;;;20.50;41.60;;;;;;1544259;77;767;-61
2023/03/19 10:48:01;;;;;;;;;;;20.50;41.60;;;;;;1548194;77;813;-61
2023/03/19 10:50:03;;;;;;;;;;;20.50;41.60;;;;;;1535906;77;737;-60
2023/03/19 10:52:05;;;;;;;;;;;20.50;41.60;;;;;;1542414;77;1416;-61
2023/03/19 10:54:17;;;;;;;;;;;20.50;41.60;;;;;;1533413;77;802;-61
2023/03/19 10:56:21;;;;;;;;;;;20.60;41.60;;;;;;1537273;77;1064;-61
2023/03/19 10:58:24;;;;;;;;;;;20.50;41.60;;;;;;1540627;77;1904;-61
2023/03/19 11:00:31;;;;;;;;;;;20.60;41.50;;;;;;1524031;77;724;-60
2023/03/19 11:02:32;;;;;;;;;;;20.50;41.50;;;;;;1524289;77;1806;-64
2023/03/19 11:04:34;;;;;;;;;;;20.60;41.50;;;;;;1543261;77;704;-60
2023/03/19 11:06:36;;;;;;;;;;;20.50;41.50;;;;;;1542336;77;1612;-60
2023/03/19 11:08:38;;;;;;;;;;;20.50;41.50;;;;;;1546997;77;710;-60
2023/03/19 11:10:41;;;;;;;;;;;20.60;41.40;;;;;;1544860;77;761;-60
2023/03/19 11:12:45;;;;;;;;;;;20.50;41.50;;;;;;1542309;77;1894;-60
2023/03/19 11:14:47;;;;;;;;;;;20.60;41.50;;;;;;1536099;77;925;-61
2023/03/19 11:16:56;;;;;;;;;;;20.50;41.50;;;;;;1541245;77;641;-60
2023/03/19 11:18:58;;;;;;;;;;;20.50;41.50;;;;;;1538174;77;1874;-60
2023/03/19 11:21:03;;;;;;;;;;;20.50;41.50;;;;;;1540164;77;1259;-60
2023/03/19 11:23:11;;;;;;;;;;;20.60;41.50;;;;;;1535314;77;1155;-61
2023/03/19 11:25:17;;;;;;;;;;;20.60;41.50;;;;;;1533851;77;786;-60
2023/03/19 11:27:18;;;;;;;;;;;20.50;41.50;;;;;;1541979;77;1662;-59
2023/03/19 11:29:20;;;;;;;;;;;20.60;41.50;;;;;;1541945;77;731;-61
2023/03/19 11:31:26;;;;;;;;;;;20.50;41.50;;;;;;1531039;77;807;-60
2023/03/19 11:33:46;;;;;;;;;;;20.60;41.50;;;;;;1542674;77;1548;-61
2023/03/19 11:35:52;;;;;;;;;;;20.50;41.40;;;;;;1534452;77;723;-60
2023/03/19 11:37:55;;;;;;;;;;;20.50;41.50;;;;;;1528950;77;2154;-60
2023/03/19 11:40:07;;;;;;;;;;;20.60;41.50;;;;;;1537676;77;659;-60
2023/03/19 11:42:27;;;;;;;;;;;20.60;41.50;;;;;;1523421;77;1147;-61
2023/03/19 11:44:31;;;;;;;;;;;20.60;41.40;;;;;;1542959;77;721;-60
2023/03/19 11:46:43;;;;;;;;;;;20.50;41.50;;;;;;1547907;77;669;-61
2023/03/19 11:49:03;;;;;;;;;;;20.50;41.50;;;;;;1538123;77;1563;-59
2023/03/19 11:51:25;;;;;;;;;;;20.60;41.50;;;;;;1527836;77;728;-60
2023/03/19 11:53:29;;;;;;;;;;;20.50;41.50;;;;;;1539389;77;1130;-60
2023/03/19 11:55:34;;;;;;;;;;;20.50;41.50;;;;;;1531052;77;683;-60
2023/03/19 11:57:55;;;;;;;;;;;20.50;41.60;;;;;;1540809;77;1593;-60
2023/03/19 12:00:17;;;;;;;;;;;20.50;41.50;;;;;;1533497;77;751;-60
2023/03/19 12:02:29;;;;;;;;;;;20.50;41.50;;;;;;1536325;77;1572;-59
2023/03/19 12:04:33;;;;;;;;;;;20.50;41.50;;;;;;1543956;77;732;-60
2023/03/19 12:06:45;;;;;;;;;;;20.50;41.50;;;;;;1532046;77;643;-60
2023/03/19 12:08:55;;;;;;;;;;;20.50;41.50;;;;;;1545240;77;1945;-60
2023/03/19 12:11:01;;;;;;;;;;;20.50;41.50;;;;;;1532562;77;1830;-60
2023/03/19 12:13:05;;;;;;;;;;;20.50;41.50;;;;;;1548174;77;1221;-61
2023/03/19 12:15:25;;;;;;;;;;;20.50;41.50;;;;;;1545781;77;722;-61